sensor_id;sensor_type;location;lat;lon;timestamp;temperature;humidity
43015;DHT22;28637;50.554;7.032;2023-02-03T00:03:01;7.70;99.90
43015;DHT22;28637;50.554;7.032;2023-02-03T00:08:02;7.70;99.90
43015;DHT22;28637;50.554;7.032;2023-02-03T00:13:03;7.70;99.90
43015;DHT22;28637;50.554;7.032;2023-02-03T00:18:04;7.80;99.90
43015;DHT22;28637;50.554;7.032;2023-02-03T00:23:06;7.70;99.90
43015;DHT22;28637;50.554;7.032;2023-02-03T00:28:07;7.70;99.90
43015;DHT22;28637;50.554;7.032;2023-02-03T00:33:07;7.60;99.90
43015;DHT22;28637;50.554;7.032;2023-02-03T00:38:08;7.60;99.90
43015;DHT22;28637;50.554;7.032;2023-02-03T00:43:08;7.60;99.90
43015;DHT22;28637;50.554;7.032;2023-02-03T00:48:09;7.60;99.90
43015;DHT22;28637;50.554;7.032;2023-02-03T00:53:10;7.70;99.90
43015;DHT22;28637;50.554;7.032;2023-02-03T00:58:10;7.70;99.90
43015;DHT22;28637;50.554;7.032;2023-02-03T01:03:11;7.70;99.90
43015;DHT22;28637;50.554;7.032;2023-02-03T01:08:12;7.70;99.90
43015;DHT22;28637;50.554;7.032;2023-02-03T01:13:14;7.80;99.90
43015;DHT22;28637;50.554;7.032;2023-02-03T01:18:15;7.80;99.90
43015;DHT22;28637;50.554;7.032;2023-02-03T01:23:15;7.90;99.90
43015;DHT22;28637;50.554;7.032;2023-02-03T01:28:16;7.90;99.90
43015;DHT22;28637;50.554;7.032;2023-02-03T01:33:17;8.00;99.90
43015;DHT22;28637;50.554;7.032;2023-02-03T01:38:17;8.00;99.90
43015;DHT22;28637;50.554;7.032;2023-02-03T01:43:30;8.10;99.90
43015;DHT22;28637;50.554;7.032;2023-02-03T01:48:32;8.10;99.90
43015;DHT22;28637;50.554;7.032;2023-02-03T01:53:33;8.10;99.90
43015;DHT22;28637;50.554;7.032;2023-02-03T01:58:37;8.30;99.90
43015;DHT22;28637;50.554;7.032;2023-02-03T02:03:52;8.30;99.90
43015;DHT22;28637;50.554;7.032;2023-02-03T02:08:54;8.30;99.90
43015;DHT22;28637;50.554;7.032;2023-02-03T02:13:59;8.30;99.90
43015;DHT22;28637;50.554;7.032;2023-02-03T02:35:12;8.60;99.90
43015;DHT22;28637;50.554;7.032;2023-02-03T02:40:28;8.60;99.90
43015;DHT22;28637;50.554;7.032;2023-02-03T02:45:45;8.70;99.90
43015;DHT22;28637;50.554;7.032;2023-02-03T02:50:49;8.70;99.90
43015;DHT22;28637;50.554;7.032;2023-02-03T02:55:52;8.70;99.90
43015;DHT22;28637;50.554;7.032;2023-02-03T03:00:54;8.70;99.90
43015;DHT22;28637;50.554;7.032;2023-02-03T03:06:09;8.60;99.90
43015;DHT22;28637;50.554;7.032;2023-02-03T03:11:10;8.50;99.90
43015;DHT22;28637;50.554;7.032;2023-02-03T03:16:13;8.40;99.90
43015;DHT22;28637;50.554;7.032;2023-02-03T03:21:21;8.30;99.90
43015;DHT22;28637;50.554;7.032;2023-02-03T03:26:27;8.40;99.90
43015;DHT22;28637;50.554;7.032;2023-02-03T03:31:29;8.40;99.90
43015;DHT22;28637;50.554;7.032;2023-02-03T03:36:35;8.40;99.90
43015;DHT22;28637;50.554;7.032;2023-02-03T03:41:53;8.40;99.90
43015;DHT22;28637;50.554;7.032;2023-02-03T03:47:17;8.40;99.90
43015;DHT22;28637;50.554;7.032;2023-02-03T03:52:22;8.30;99.90
43015;DHT22;28637;50.554;7.032;2023-02-03T03:57:31;8.30;99.90
43015;DHT22;28637;50.554;7.032;2023-02-03T04:02:34;8.30;99.90
43015;DHT22;28637;50.554;7.032;2023-02-03T04:07:41;8.40;99.90
43015;DHT22;28637;50.554;7.032;2023-02-03T04:12:43;8.40;99.90
43015;DHT22;28637;50.554;7.032;2023-02-03T04:17:43;8.40;99.90
43015;DHT22;28637;50.554;7.032;2023-02-03T04:22:44;8.30;99.90
43015;DHT22;28637;50.554;7.032;2023-02-03T04:27:45;8.40;99.90
43015;DHT22;28637;50.554;7.032;2023-02-03T04:32:46;8.50;99.90
43015;DHT22;28637;50.554;7.032;2023-02-03T04:37:47;8.60;99.90
43015;DHT22;28637;50.554;7.032;2023-02-03T04:42:48;8.60;99.90
43015;DHT22;28637;50.554;7.032;2023-02-03T04:47:51;8.60;99.90
43015;DHT22;28637;50.554;7.032;2023-02-03T04:52:52;8.50;99.90
43015;DHT22;28637;50.554;7.032;2023-02-03T04:58:00;8.50;99.90
43015;DHT22;28637;50.554;7.032;2023-02-03T05:03:00;8.50;99.90
43015;DHT22;28637;50.554;7.032;2023-02-03T05:08:01;8.60;99.90
43015;DHT22;28637;50.554;7.032;2023-02-03T05:13:02;8.50;99.90
43015;DHT22;28637;50.554;7.032;2023-02-03T05:18:03;8.40;99.90
43015;DHT22;28637;50.554;7.032;2023-02-03T05:23:03;8.50;99.90
43015;DHT22;28637;50.554;7.032;2023-02-03T05:28:04;8.40;99.90
43015;DHT22;28637;50.554;7.032;2023-02-03T05:33:05;8.40;99.90
43015;DHT22;28637;50.554;7.032;2023-02-03T05:38:05;8.40;99.90
43015;DHT22;28637;50.554;7.032;2023-02-03T05:43:06;8.40;99.90
43015;DHT22;28637;50.554;7.032;2023-02-03T05:48:07;8.50;99.90
43015;DHT22;28637;50.554;7.032;2023-02-03T05:53:08;8.50;99.90
43015;DHT22;28637;50.554;7.032;2023-02-03T05:58:09;8.50;99.90
43015;DHT22;28637;50.554;7.032;2023-02-03T06:03:09;8.50;99.90
43015;DHT22;28637;50.554;7.032;2023-02-03T06:08:10;8.60;99.90
43015;DHT22;28637;50.554;7.032;2023-02-03T06:13:13;8.60;99.90
43015;DHT22;28637;50.554;7.032;2023-02-03T06:18:14;8.60;99.90
43015;DHT22;28637;50.554;7.032;2023-02-03T06:23:15;8.70;99.90
43015;DHT22;28637;50.554;7.032;2023-02-03T06:28:16;8.80;99.90
43015;DHT22;28637;50.554;7.032;2023-02-03T06:33:18;8.80;99.90
43015;DHT22;28637;50.554;7.032;2023-02-03T06:38:19;8.80;99.90
43015;DHT22;28637;50.554;7.032;2023-02-03T06:43:19;8.80;99.90
43015;DHT22;28637;50.554;7.032;2023-02-03T06:48:20;8.80;99.90
43015;DHT22;28637;50.554;7.032;2023-02-03T06:53:20;8.80;99.90
43015;DHT22;28637;50.554;7.032;2023-02-03T06:58:21;8.80;99.90
43015;DHT22;28637;50.554;7.032;2023-02-03T07:03:22;8.70;99.90
43015;DHT22;28637;50.554;7.032;2023-02-03T07:08:22;8.70;99.90
43015;DHT22;28637;50.554;7.032;2023-02-03T07:13:23;8.70;99.90
43015;DHT22;28637;50.554;7.032;2023-02-03T07:18:24;8.60;99.90
43015;DHT22;28637;50.554;7.032;2023-02-03T07:23:25;8.60;99.90
43015;DHT22;28637;50.554;7.032;2023-02-03T07:28:26;8.60;99.90
43015;DHT22;28637;50.554;7.032;2023-02-03T07:33:27;8.60;99.90
43015;DHT22;28637;50.554;7.032;2023-02-03T07:38:28;8.70;99.90
43015;DHT22;28637;50.554;7.032;2023-02-03T07:43:29;8.70;99.90
43015;DHT22;28637;50.554;7.032;2023-02-03T07:48:29;8.60;99.90
43015;DHT22;28637;50.554;7.032;2023-02-03T07:53:30;8.70;99.90
43015;DHT22;28637;50.554;7.032;2023-02-03T07:58:31;8.70;99.90
43015;DHT22;28637;50.554;7.032;2023-02-03T08:03:32;8.70;99.90
43015;DHT22;28637;50.554;7.032;2023-02-03T08:08:33;8.80;99.90
43015;DHT22;28637;50.554;7.032;2023-02-03T08:13:34;8.80;99.90
43015;DHT22;28637;50.554;7.032;2023-02-03T08:18:35;8.80;99.90
43015;DHT22;28637;50.554;7.032;2023-02-03T08:23:36;8.90;99.90
43015;DHT22;28637;50.554;7.032;2023-02-03T08:28:36;8.90;99.90
43015;DHT22;28637;50.554;7.032;2023-02-03T08:33:37;8.90;99.90
43015;DHT22;28637;50.554;7.032;2023-02-03T08:38:38;8.90;99.90
43015;DHT22;28637;50.554;7.032;2023-02-03T08:43:39;8.90;99.90
43015;DHT22;28637;50.554;7.032;2023-02-03T08:48:40;9.00;99.90
43015;DHT22;28637;50.554;7.032;2023-02-03T08:53:41;9.00;99.90
43015;DHT22;28637;50.554;7.032;2023-02-03T08:58:41;9.10;99.90
43015;DHT22;28637;50.554;7.032;2023-02-03T09:03:42;9.00;99.90
43015;DHT22;28637;50.554;7.032;2023-02-03T09:08:43;9.10;99.90
43015;DHT22;28637;50.554;7.032;2023-02-03T09:13:45;9.10;99.90
43015;DHT22;28637;50.554;7.032;2023-02-03T09:18:48;9.10;99.90
43015;DHT22;28637;50.554;7.032;2023-02-03T09:23:49;9.10;99.90
43015;DHT22;28637;50.554;7.032;2023-02-03T09:28:51;9.10;99.90
43015;DHT22;28637;50.554;7.032;2023-02-03T09:33:52;9.10;99.90
43015;DHT22;28637;50.554;7.032;2023-02-03T09:38:52;9.10;99.90
43015;DHT22;28637;50.554;7.032;2023-02-03T09:49:45;9.10;99.90
43015;DHT22;28637;50.554;7.032;2023-02-03T09:54:56;9.10;99.90
43015;DHT22;28637;50.554;7.032;2023-02-03T10:00:03;9.00;99.90
43015;DHT22;28637;50.554;7.032;2023-02-03T10:10:40;8.90;99.90
43015;DHT22;28637;50.554;7.032;2023-02-03T10:21:03;8.70;99.90
43015;DHT22;28637;50.554;7.032;2023-02-03T10:26:16;8.70;99.90
43015;DHT22;28637;50.554;7.032;2023-02-03T10:31:24;8.70;99.90
43015;DHT22;28637;50.554;7.032;2023-02-03T10:41:41;8.60;99.90
43015;DHT22;28637;50.554;7.032;2023-02-03T10:46:43;8.50;99.90
43015;DHT22;28637;50.554;7.032;2023-02-03T10:51:50;8.60;99.90
43015;DHT22;28637;50.554;7.032;2023-02-03T10:56:51;8.60;99.90
43015;DHT22;28637;50.554;7.032;2023-02-03T11:01:51;8.60;99.90
43015;DHT22;28637;50.554;7.032;2023-02-03T11:06:55;8.60;99.90
43015;DHT22;28637;50.554;7.032;2023-02-03T11:17:25;8.70;99.90
43015;DHT22;28637;50.554;7.032;2023-02-03T11:22:37;8.80;99.90
43015;DHT22;28637;50.554;7.032;2023-02-03T11:27:38;8.90;99.90
43015;DHT22;28637;50.554;7.032;2023-02-03T11:32:41;9.00;99.90
43015;DHT22;28637;50.554;7.032;2023-02-03T11:37:46;9.30;99.90
43015;DHT22;28637;50.554;7.032;2023-02-03T11:47:56;9.40;99.90
43015;DHT22;28637;50.554;7.032;2023-02-03T11:58:40;9.70;99.90
43015;DHT22;28637;50.554;7.032;2023-02-03T12:09:24;9.80;99.90
43015;DHT22;28637;50.554;7.032;2023-02-03T12:25:29;9.90;99.90
43015;DHT22;28637;50.554;7.032;2023-02-03T12:30:54;9.80;99.90
43015;DHT22;28637;50.554;7.032;2023-02-03T12:36:14;9.80;99.90
43015;DHT22;28637;50.554;7.032;2023-02-03T12:41:39;9.80;99.90
43015;DHT22;28637;50.554;7.032;2023-02-03T12:46:43;9.80;99.90
43015;DHT22;28637;50.554;7.032;2023-02-03T12:51:58;9.80;99.90
43015;DHT22;28637;50.554;7.032;2023-02-03T13:02:23;9.70;99.90
43015;DHT22;28637;50.554;7.032;2023-02-03T13:07:32;9.70;99.90
43015;DHT22;28637;50.554;7.032;2023-02-03T13:12:42;9.70;99.90
43015;DHT22;28637;50.554;7.032;2023-02-03T13:22:52;9.60;99.90
43015;DHT22;28637;50.554;7.032;2023-02-03T13:44:03;9.60;99.90
43015;DHT22;28637;50.554;7.032;2023-02-03T13:49:05;9.60;99.90
43015;DHT22;28637;50.554;7.032;2023-02-03T13:54:28;9.60;99.90
43015;DHT22;28637;50.554;7.032;2023-02-03T14:09:46;9.50;99.90
43015;DHT22;28637;50.554;7.032;2023-02-03T14:24:51;9.50;99.90
43015;DHT22;28637;50.554;7.032;2023-02-03T14:30:14;9.40;99.90
43015;DHT22;28637;50.554;7.032;2023-02-03T14:35:30;9.40;99.90
43015;DHT22;28637;50.554;7.032;2023-02-03T14:46:05;9.30;99.90
43015;DHT22;28637;50.554;7.032;2023-02-03T14:56:54;9.30;99.90
43015;DHT22;28637;50.554;7.032;2023-02-03T15:02:21;9.30;99.90
43015;DHT22;28637;50.554;7.032;2023-02-03T15:07:44;9.30;99.90
43015;DHT22;28637;50.554;7.032;2023-02-03T15:12:51;9.20;99.90
43015;DHT22;28637;50.554;7.032;2023-02-03T15:18:18;9.30;99.90
43015;DHT22;28637;50.554;7.032;2023-02-03T15:23:22;9.30;99.90
43015;DHT22;28637;50.554;7.032;2023-02-03T15:28:24;9.30;99.90
43015;DHT22;28637;50.554;7.032;2023-02-03T15:33:25;9.20;99.90
43015;DHT22;28637;50.554;7.032;2023-02-03T15:38:30;9.20;99.90
43015;DHT22;28637;50.554;7.032;2023-02-03T15:43:37;9.20;99.90
43015;DHT22;28637;50.554;7.032;2023-02-03T15:54:12;9.30;99.90
43015;DHT22;28637;50.554;7.032;2023-02-03T15:59:31;9.50;99.90
43015;DHT22;28637;50.554;7.032;2023-02-03T16:04:32;9.50;99.90
43015;DHT22;28637;50.554;7.032;2023-02-03T16:09:38;9.40;99.90
43015;DHT22;28637;50.554;7.032;2023-02-03T16:14:39;9.30;99.90
43015;DHT22;28637;50.554;7.032;2023-02-03T16:19:40;9.20;99.90
43015;DHT22;28637;50.554;7.032;2023-02-03T16:24:42;9.20;99.90
43015;DHT22;28637;50.554;7.032;2023-02-03T16:29:45;9.20;99.90
43015;DHT22;28637;50.554;7.032;2023-02-03T16:35:09;9.20;99.90
43015;DHT22;28637;50.554;7.032;2023-02-03T16:40:28;9.20;99.90
43015;DHT22;28637;50.554;7.032;2023-02-03T16:45:55;9.20;99.90
43015;DHT22;28637;50.554;7.032;2023-02-03T16:51:15;9.20;99.90
43015;DHT22;28637;50.554;7.032;2023-02-03T16:56:16;9.30;99.90
43015;DHT22;28637;50.554;7.032;2023-02-03T17:01:18;9.30;99.90
43015;DHT22;28637;50.554;7.032;2023-02-03T17:06:19;9.30;99.90
43015;DHT22;28637;50.554;7.032;2023-02-03T17:11:21;9.30;99.90
43015;DHT22;28637;50.554;7.032;2023-02-03T17:16:24;9.30;99.90
43015;DHT22;28637;50.554;7.032;2023-02-03T17:21:27;9.30;99.90
43015;DHT22;28637;50.554;7.032;2023-02-03T17:26:27;9.30;99.90
43015;DHT22;28637;50.554;7.032;2023-02-03T17:31:29;9.30;99.90
43015;DHT22;28637;50.554;7.032;2023-02-03T17:36:31;9.20;99.90
43015;DHT22;28637;50.554;7.032;2023-02-03T17:41:31;9.20;99.90
43015;DHT22;28637;50.554;7.032;2023-02-03T17:46:32;9.20;99.90
43015;DHT22;28637;50.554;7.032;2023-02-03T17:51:32;9.10;99.90
43015;DHT22;28637;50.554;7.032;2023-02-03T17:56:34;9.20;99.90
43015;DHT22;28637;50.554;7.032;2023-02-03T18:01:37;9.20;99.90
43015;DHT22;28637;50.554;7.032;2023-02-03T18:06:38;9.10;99.90
43015;DHT22;28637;50.554;7.032;2023-02-03T18:11:40;9.10;99.90
43015;DHT22;28637;50.554;7.032;2023-02-03T18:16:41;9.00;99.90
43015;DHT22;28637;50.554;7.032;2023-02-03T18:21:43;9.00;99.90
43015;DHT22;28637;50.554;7.032;2023-02-03T18:26:49;9.10;99.90
43015;DHT22;28637;50.554;7.032;2023-02-03T18:31:50;9.00;99.90
43015;DHT22;28637;50.554;7.032;2023-02-03T18:36:51;8.90;99.90
43015;DHT22;28637;50.554;7.032;2023-02-03T18:41:51;9.00;99.90
43015;DHT22;28637;50.554;7.032;2023-02-03T18:46:53;8.90;99.90
43015;DHT22;28637;50.554;7.032;2023-02-03T18:51:54;8.90;99.90
43015;DHT22;28637;50.554;7.032;2023-02-03T18:56:56;9.00;99.90
43015;DHT22;28637;50.554;7.032;2023-02-03T19:01:58;9.00;99.90
43015;DHT22;28637;50.554;7.032;2023-02-03T19:06:59;9.10;99.90
43015;DHT22;28637;50.554;7.032;2023-02-03T19:11:59;9.00;99.90
43015;DHT22;28637;50.554;7.032;2023-02-03T19:17:00;9.00;99.90
43015;DHT22;28637;50.554;7.032;2023-02-03T19:22:01;9.00;99.90
43015;DHT22;28637;50.554;7.032;2023-02-03T19:27:01;9.00;99.90
43015;DHT22;28637;50.554;7.032;2023-02-03T19:32:02;9.10;99.90
43015;DHT22;28637;50.554;7.032;2023-02-03T19:37:03;9.10;99.90
43015;DHT22;28637;50.554;7.032;2023-02-03T19:42:04;9.10;99.90
43015;DHT22;28637;50.554;7.032;2023-02-03T19:47:04;9.10;99.90
43015;DHT22;28637;50.554;7.032;2023-02-03T19:52:05;9.20;99.90
43015;DHT22;28637;50.554;7.032;2023-02-03T19:57:08;9.30;99.90
43015;DHT22;28637;50.554;7.032;2023-02-03T20:02:09;9.30;99.90
43015;DHT22;28637;50.554;7.032;2023-02-03T20:07:11;9.20;99.90
43015;DHT22;28637;50.554;7.032;2023-02-03T20:12:12;9.20;99.90
43015;DHT22;28637;50.554;7.032;2023-02-03T20:17:13;9.20;99.90
43015;DHT22;28637;50.554;7.032;2023-02-03T20:22:13;9.20;99.90
43015;DHT22;28637;50.554;7.032;2023-02-03T20:27:14;9.20;99.90
43015;DHT22;28637;50.554;7.032;2023-02-03T20:32:17;9.30;99.90
43015;DHT22;28637;50.554;7.032;2023-02-03T20:37:17;9.20;99.90
43015;DHT22;28637;50.554;7.032;2023-02-03T20:42:18;9.10;99.90
43015;DHT22;28637;50.554;7.032;2023-02-03T20:47:19;9.10;99.90
43015;DHT22;28637;50.554;7.032;2023-02-03T20:52:21;9.10;99.90
43015;DHT22;28637;50.554;7.032;2023-02-03T20:57:22;9.10;99.90
43015;DHT22;28637;50.554;7.032;2023-02-03T21:02:23;9.00;99.90
43015;DHT22;28637;50.554;7.032;2023-02-03T21:07:32;9.00;99.90
43015;DHT22;28637;50.554;7.032;2023-02-03T21:12:33;9.00;99.90
43015;DHT22;28637;50.554;7.032;2023-02-03T21:17:34;8.90;99.90
43015;DHT22;28637;50.554;7.032;2023-02-03T21:22:35;8.90;99.90
43015;DHT22;28637;50.554;7.032;2023-02-03T21:27:36;8.90;99.90
43015;DHT22;28637;50.554;7.032;2023-02-03T21:32:38;8.90;99.90
43015;DHT22;28637;50.554;7.032;2023-02-03T21:37:40;8.80;99.90
43015;DHT22;28637;50.554;7.032;2023-02-03T21:42:41;8.80;99.90
43015;DHT22;28637;50.554;7.032;2023-02-03T21:47:43;8.80;99.90
43015;DHT22;28637;50.554;7.032;2023-02-03T21:52:44;8.80;99.90
43015;DHT22;28637;50.554;7.032;2023-02-03T21:57:48;8.80;99.90
43015;DHT22;28637;50.554;7.032;2023-02-03T22:02:58;8.80;99.90
43015;DHT22;28637;50.554;7.032;2023-02-03T22:08:02;8.80;99.90
43015;DHT22;28637;50.554;7.032;2023-02-03T22:13:03;8.80;99.90
43015;DHT22;28637;50.554;7.032;2023-02-03T22:18:04;8.80;99.90
43015;DHT22;28637;50.554;7.032;2023-02-03T22:23:04;8.80;99.90
43015;DHT22;28637;50.554;7.032;2023-02-03T22:28:05;8.80;99.90
43015;DHT22;28637;50.554;7.032;2023-02-03T22:33:06;8.80;99.90
43015;DHT22;28637;50.554;7.032;2023-02-03T22:38:08;8.70;99.90
43015;DHT22;28637;50.554;7.032;2023-02-03T22:43:09;8.70;99.90
43015;DHT22;28637;50.554;7.032;2023-02-03T22:48:09;8.70;99.90
43015;DHT22;28637;50.554;7.032;2023-02-03T22:53:10;8.70;99.90
43015;DHT22;28637;50.554;7.032;2023-02-03T22:58:11;8.60;99.90
43015;DHT22;28637;50.554;7.032;2023-02-03T23:03:11;8.50;99.90
43015;DHT22;28637;50.554;7.032;2023-02-03T23:08:12;8.50;99.90
43015;DHT22;28637;50.554;7.032;2023-02-03T23:13:13;8.30;99.90
43015;DHT22;28637;50.554;7.032;2023-02-03T23:18:13;8.20;99.90
43015;DHT22;28637;50.554;7.032;2023-02-03T23:23:15;8.20;99.90
43015;DHT22;28637;50.554;7.032;2023-02-03T23:28:15;8.10;99.90
43015;DHT22;28637;50.554;7.032;2023-02-03T23:33:16;8.10;99.90
43015;DHT22;28637;50.554;7.032;2023-02-03T23:38:17;8.00;99.90
43015;DHT22;28637;50.554;7.032;2023-02-03T23:43:18;8.00;99.90
43015;DHT22;28637;50.554;7.032;2023-02-03T23:48:19;8.00;99.90
43015;DHT22;28637;50.554;7.032;2023-02-03T23:53:19;8.00;99.90
43015;DHT22;28637;50.554;7.032;2023-02-03T23:58:20;7.90;99.90
